Time;durP1;ratioP1;P1;durP2;ratioP2;P2;SDS_P1;SDS_P2;PMS_P1;PMS_P2;Temp;Humidity;BMP_temperature;BMP_pressure;BME280_temperature;BME280_humidity;BME280_pressure;Samples;Min_cycle;Max_cycle;Signal;HPM_P1;HPM_P2
2022/09/21 00:00:04;;;;;;;1.83;1.10;;;10.00;99.90;;;;;;4994947;28;20125;-71
2022/09/21 00:02:29;;;;;;;1.10;0.85;;;9.90;99.90;;;;;;4995234;28;20110;-70
2022/09/21 00:04:55;;;;;;;2.38;1.38;;;10.00;99.90;;;;;;4994997;28;20061;-70
2022/09/21 00:07:21;;;;;;;2.22;1.10;;;10.00;99.90;;;;;;4995545;28;20106;-70
2022/09/21 00:09:46;;;;;;;1.90;0.88;;;10.00;99.90;;;;;;4995029;28;20036;-70
2022/09/21 00:12:12;;;;;;;1.20;1.00;;;10.00;99.90;;;;;;4995304;28;20359;-70
2022/09/21 00:14:38;;;;;;;2.85;1.23;;;10.00;99.90;;;;;;4995717;28;20027;-71
2022/09/21 00:17:04;;;;;;;1.98;1.20;;;10.00;99.90;;;;;;4993085;28;20029;-70
2022/09/21 00:19:29;;;;;;;1.77;1.40;;;10.00;99.90;;;;;;4995059;28;20419;-70
2022/09/21 00:21:56;;;;;;;1.58;1.10;;;10.00;99.90;;;;;;4994484;28;20466;-70
2022/09/21 00:24:21;;;;;;;1.60;1.10;;;10.00;99.90;;;;;;4994690;28;20035;-70
2022/09/21 00:26:47;;;;;;;1.63;1.00;;;10.10;99.90;;;;;;4994592;28;20093;-68
2022/09/21 00:29:13;;;;;;;1.20;0.80;;;10.10;99.90;;;;;;4994767;28;20038;-69
2022/09/21 00:31:39;;;;;;;1.17;0.90;;;10.10;99.90;;;;;;4994927;28;20034;-69
2022/09/21 00:34:06;;;;;;;1.98;1.10;;;10.10;99.90;;;;;;4994227;28;20030;-70
2022/09/21 00:36:33;;;;;;;2.72;1.33;;;10.10;99.90;;;;;;4994798;28;20048;-69
2022/09/21 00:39:00;;;;;;;4.38;1.63;;;10.10;99.90;;;;;;4994415;28;20038;-69
2022/09/21 00:41:28;;;;;;;2.03;1.15;;;10.10;99.90;;;;;;4994621;28;20062;-70
2022/09/21 00:44:15;;;;;;;2.33;1.20;;;10.20;99.90;;;;;;4994531;28;20082;-69
2022/09/21 00:46:41;;;;;;;2.10;1.05;;;10.20;99.90;;;;;;4994209;28;20029;-72
2022/09/21 00:49:08;;;;;;;4.10;1.35;;;10.20;99.90;;;;;;4993814;28;20104;-71
2022/09/21 00:51:36;;;;;;;1.52;0.98;;;10.20;99.90;;;;;;4994104;28;20475;-70
2022/09/21 00:54:11;;;;;;;3.55;1.20;;;10.20;99.90;;;;;;4993933;28;20030;-70
2022/09/21 00:56:37;;;;;;;1.42;0.93;;;10.20;99.90;;;;;;4993762;28;20071;-70
2022/09/21 00:59:04;;;;;;;1.27;1.08;;;10.20;99.90;;;;;;4993770;28;20045;-70
2022/09/21 01:01:30;;;;;;;1.52;1.08;;;10.20;99.90;;;;;;4965262;28;20031;-70
2022/09/21 01:03:56;;;;;;;1.80;1.05;;;10.20;99.90;;;;;;4974305;28;20031;-70
2022/09/21 01:06:22;;;;;;;1.75;1.10;;;10.20;99.90;;;;;;4974491;28;20074;-70
2022/09/21 01:08:51;;;;;;;3.65;1.60;;;10.20;99.90;;;;;;4974416;28;20085;-70
2022/09/21 01:11:24;;;;;;;1.45;1.08;;;10.20;99.90;;;;;;4974624;28;20037;-71
2022/09/21 01:14:04;;;;;;;3.00;1.00;;;10.20;99.90;;;;;;4973901;28;20023;-71
2022/09/21 01:16:52;;;;;;;2.10;1.02;;;10.20;99.90;;;;;;4974998;28;20039;-70
2022/09/21 01:19:26;;;;;;;1.63;1.05;;;10.20;99.90;;;;;;4974417;28;20030;-69
2022/09/21 01:22:18;;;;;;;2.25;1.20;;;10.20;99.90;;;;;;4974317;28;20038;-70
2022/09/21 01:25:20;;;;;;;4.93;1.10;;;10.10;99.90;;;;;;4974602;28;20037;-70
2022/09/21 01:27:56;;;;;;;;;;;10.10;99.90;;;;;;4974613;28;20022;-69
2022/09/21 01:30:22;;;;;;;1.50;1.20;;;10.10;99.90;;;;;;4974415;28;19910;-69
2022/09/21 01:33:02;;;;;;;1.67;1.27;;;10.10;99.90;;;;;;4974029;28;20046;-72
2022/09/21 01:35:36;;;;;;;3.03;1.42;;;10.10;99.90;;;;;;4974414;28;20035;-69
2022/09/21 01:38:06;;;;;;;1.27;0.88;;;10.10;99.90;;;;;;4973437;28;20075;-69
2022/09/21 01:40:43;;;;;;;1.63;1.30;;;10.10;99.90;;;;;;4973820;28;20467;-70
2022/09/21 01:43:14;;;;;;;1.48;1.25;;;10.00;99.90;;;;;;4973238;28;20062;-70
2022/09/21 01:45:44;;;;;;;2.35;1.35;;;10.10;99.90;;;;;;4973745;28;20535;-70
2022/09/21 01:48:12;;;;;;;4.83;1.07;;;10.00;99.90;;;;;;4973645;28;20047;-70
2022/09/21 01:50:43;;;;;;;1.92;1.13;;;10.10;99.90;;;;;;4973887;28;20093;-69
2022/09/21 01:53:24;;;;;;;2.50;1.45;;;10.10;99.90;;;;;;4973812;28;20143;-69
2022/09/21 01:55:55;;;;;;;0.98;0.90;;;10.10;99.90;;;;;;4974191;28;20034;-70
2022/09/21 01:58:27;;;;;;;1.90;1.10;;;10.00;99.90;;;;;;4974285;28;20121;-69
2022/09/21 02:00:55;;;;;;;1.25;1.02;;;10.00;99.90;;;;;;4974018;28;20041;-70
2022/09/21 02:03:31;;;;;;;1.63;1.20;;;10.00;99.90;;;;;;4973727;28;20029;-70
2022/09/21 02:05:58;;;;;;;2.45;1.20;;;10.00;99.90;;;;;;4973635;28;20180;-70
2022/09/21 02:08:27;;;;;;;1.45;1.15;;;10.00;99.90;;;;;;4973878;28;20035;-70
2022/09/21 02:10:53;;;;;;;1.35;1.20;;;10.00;99.90;;;;;;4974818;28;20031;-71
2022/09/21 02:13:24;;;;;;;1.63;1.20;;;10.00;99.90;;;;;;4977926;28;20038;-70
2022/09/21 02:16:09;;;;;;;2.57;1.20;;;10.00;99.90;;;;;;4977974;28;20353;-69
2022/09/21 02:18:56;;;;;;;1.75;1.20;;;10.00;99.90;;;;;;4977561;28;20268;-70
2022/09/21 02:21:29;;;;;;;2.47;0.90;;;10.10;99.90;;;;;;4986137;28;20097;-70
2022/09/21 02:24:23;;;;;;;2.10;1.23;;;10.00;99.90;;;;;;4991612;28;20026;-71
2022/09/21 02:27:01;;;;;;;2.00;1.05;;;10.10;99.90;;;;;;4992588;28;20077;-70
2022/09/21 02:29:50;;;;;;;1.40;1.10;;;10.10;99.90;;;;;;4996726;28;20040;-70
2022/09/21 02:32:34;;;;;;;2.97;1.10;;;10.10;99.90;;;;;;4976681;28;20137;-70
2022/09/21 02:35:11;;;;;;;1.30;1.20;;;10.10;99.90;;;;;;4976932;28;20037;-69
2022/09/21 02:37:48;;;;;;;1.23;1.00;;;10.10;99.90;;;;;;4977518;28;20110;-69
2022/09/21 02:40:17;;;;;;;2.90;1.30;;;10.10;99.90;;;;;;4976961;28;20034;-70
2022/09/21 02:42:46;;;;;;;1.60;1.00;;;10.00;99.90;;;;;;4976939;28;20197;-70
2022/09/21 02:45:23;;;;;;;1.25;1.08;;;10.00;99.90;;;;;;4978675;28;20027;-71
2022/09/21 02:47:57;;;;;;;1.58;1.15;;;10.10;99.90;;;;;;4989558;28;20066;-71
2022/09/21 02:50:31;;;;;;;2.67;1.30;;;10.10;99.90;;;;;;4991992;28;20395;-71
2022/09/21 02:53:00;;;;;;;1.77;1.17;;;10.10;99.90;;;;;;4990752;28;20030;-71
2022/09/21 02:55:26;;;;;;;1.27;0.98;;;10.10;99.90;;;;;;4992326;28;20415;-71
2022/09/21 02:57:54;;;;;;;2.35;1.20;;;10.10;99.90;;;;;;4995853;28;20022;-69
2022/09/21 03:00:20;;;;;;;4.30;1.30;;;10.10;99.90;;;;;;4992607;28;20033;-69
2022/09/21 03:02:45;;;;;;;1.67;1.05;;;10.10;99.90;;;;;;4996368;28;20030;-69
2022/09/21 03:05:13;;;;;;;3.90;1.58;;;10.10;99.90;;;;;;4995895;28;20023;-70
2022/09/21 03:07:39;;;;;;;1.95;1.25;;;10.00;99.90;;;;;;4996095;28;20026;-70
2022/09/21 03:10:07;;;;;;;3.03;1.10;;;10.10;99.90;;;;;;4995944;28;20467;-69
2022/09/21 03:12:32;;;;;;;4.13;1.40;;;10.10;99.90;;;;;;4996022;28;20034;-69
2022/09/21 03:14:59;;;;;;;2.20;1.05;;;10.00;99.90;;;;;;4995851;28;20106;-70
2022/09/21 03:17:25;;;;;;;2.33;1.17;;;10.00;99.90;;;;;;4996071;28;20121;-69
2022/09/21 03:19:53;;;;;;;3.17;1.30;;;10.00;99.90;;;;;;4995931;28;20049;-70
2022/09/21 03:22:23;;;;;;;2.42;1.20;;;10.00;99.90;;;;;;4994057;28;20478;-69
2022/09/21 03:24:49;;;;;;;2.50;1.20;;;10.00;99.90;;;;;;4996047;28;20033;-69
2022/09/21 03:27:17;;;;;;;1.05;0.95;;;10.00;99.90;;;;;;4995275;28;20404;-69
2022/09/21 03:29:43;;;;;;;1.70;1.00;;;10.00;99.90;;;;;;4995747;28;20030;-70
2022/09/21 03:32:09;;;;;;;1.90;1.20;;;10.00;99.90;;;;;;4995605;28;20092;-69
2022/09/21 03:34:35;;;;;;;1.92;1.30;;;10.00;99.90;;;;;;4995991;28;20030;-70
2022/09/21 03:37:05;;;;;;;1.33;1.20;;;10.00;99.90;;;;;;4995082;28;20110;-70
2022/09/21 03:39:31;;;;;;;1.42;0.88;;;10.00;99.90;;;;;;4996132;28;20026;-70
2022/09/21 03:41:56;;;;;;;1.75;1.25;;;10.00;99.90;;;;;;4994967;28;20088;-69
2022/09/21 03:44:23;;;;;;;2.13;1.30;;;10.00;99.90;;;;;;4995237;28;20050;-69
2022/09/21 03:46:49;;;;;;;1.88;1.20;;;10.00;99.90;;;;;;4995622;28;20074;-71
2022/09/21 03:49:15;;;;;;;2.03;1.27;;;10.00;99.90;;;;;;4994935;28;20108;-71
2022/09/21 03:51:42;;;;;;;1.95;1.25;;;10.00;99.90;;;;;;4995354;28;20378;-70
2022/09/21 03:54:08;;;;;;;1.38;1.00;;;10.00;99.90;;;;;;4994880;28;20026;-69
2022/09/21 03:56:34;;;;;;;2.33;1.35;;;9.90;99.90;;;;;;4995247;28;20026;-69
2022/09/21 03:58:59;;;;;;;1.85;1.02;;;10.00;99.90;;;;;;4995425;28;20114;-69
2022/09/21 04:01:25;;;;;;;1.88;1.20;;;9.90;99.90;;;;;;4977386;28;20100;-70
2022/09/21 04:03:50;;;;;;;1.98;1.40;;;9.90;99.90;;;;;;4995245;28;20099;-70
2022/09/21 04:06:17;;;;;;;4.65;1.45;;;9.90;99.90;;;;;;4994854;28;20057;-69
2022/09/21 04:08:43;;;;;;;2.42;1.30;;;10.00;99.90;;;;;;4995087;28;20420;-70
2022/09/21 04:11:13;;;;;;;3.28;1.60;;;9.90;99.90;;;;;;4994396;28;20037;-70
2022/09/21 04:13:41;;;;;;;2.45;1.60;;;9.90;99.90;;;;;;4995060;28;20173;-69
2022/09/21 04:16:08;;;;;;;1.20;1.10;;;9.90;99.90;;;;;;4994405;28;20479;-70
2022/09/21 04:18:35;;;;;;;2.65;1.58;;;9.90;99.90;;;;;;4995006;28;20034;-70
2022/09/21 04:21:00;;;;;;;1.67;1.10;;;9.90;99.90;;;;;;4994882;28;20026;-69
2022/09/21 04:23:26;;;;;;;2.88;1.85;;;9.90;99.90;;;;;;4976931;28;20362;-69
2022/09/21 04:25:53;;;;;;;2.65;1.77;;;9.90;99.90;;;;;;4994910;28;20026;-69
2022/09/21 04:28:19;;;;;;;2.80;1.48;;;9.80;99.90;;;;;;4992169;28;20040;-70
2022/09/21 04:30:45;;;;;;;2.17;1.33;;;9.80;99.90;;;;;;4991321;28;20102;-70
2022/09/21 04:33:10;;;;;;;1.65;1.50;;;9.80;99.90;;;;;;4991543;28;20522;-70
2022/09/21 04:35:36;;;;;;;2.45;1.65;;;9.80;99.90;;;;;;4992393;28;20014;-70
2022/09/21 04:38:02;;;;;;;2.30;1.75;;;9.80;99.90;;;;;;4992605;28;20022;-69
2022/09/21 04:40:28;;;;;;;3.90;2.00;;;9.80;99.90;;;;;;4992134;28;20109;-69
2022/09/21 04:42:54;;;;;;;2.95;1.92;;;9.80;99.90;;;;;;4991757;28;20042;-69
2022/09/21 04:45:20;;;;;;;3.67;2.28;;;9.80;99.90;;;;;;4986872;28;20026;-69
2022/09/21 04:47:46;;;;;;;2.30;1.98;;;9.80;99.90;;;;;;4992207;28;20033;-69
2022/09/21 04:50:12;;;;;;;2.45;1.85;;;9.80;99.90;;;;;;4990909;28;20026;-69
2022/09/21 04:52:38;;;;;;;3.55;2.03;;;9.80;99.90;;;;;;4990847;28;20018;-69
2022/09/21 04:55:05;;;;;;;2.80;2.08;;;9.80;99.90;;;;;;4991422;28;20022;-68
2022/09/21 04:57:30;;;;;;;3.20;2.17;;;9.80;99.90;;;;;;4991232;28;20538;-70
2022/09/21 04:59:56;;;;;;;3.67;2.20;;;9.80;99.90;;;;;;4991610;28;20144;-70
2022/09/21 05:02:22;;;;;;;3.60;2.30;;;9.80;99.90;;;;;;4990994;28;20376;-70
2022/09/21 05:04:48;;;;;;;4.28;2.17;;;9.80;99.90;;;;;;4991795;28;20033;-71
2022/09/21 05:07:14;;;;;;;5.60;2.40;;;9.80;99.90;;;;;;4990979;28;20074;-69
2022/09/21 05:12:24;;;;;;;2.80;2.05;;;9.80;99.90;;;;;;4987206;28;20034;-70
2022/09/21 05:14:50;;;;;;;2.65;2.08;;;9.80;99.90;;;;;;4991819;28;20022;-70
2022/09/21 05:17:16;;;;;;;3.38;2.55;;;9.80;99.90;;;;;;4991687;28;20112;-70
2022/09/21 05:19:41;;;;;;;3.25;2.25;;;9.80;99.90;;;;;;4992964;28;20038;-70
2022/09/21 05:22:07;;;;;;;6.03;3.03;;;9.80;99.90;;;;;;4993545;28;20026;-70
2022/09/21 05:24:33;;;;;;;4.03;2.40;;;9.80;99.90;;;;;;4993897;28;20394;-69
2022/09/21 05:26:59;;;;;;;7.20;2.60;;;9.90;99.90;;;;;;4976270;28;20056;-69
2022/09/21 05:29:25;;;;;;;3.58;2.33;;;9.90;99.90;;;;;;4993129;28;20034;-69
2022/09/21 05:32:11;;;;;;;8.35;2.20;;;9.90;99.90;;;;;;4992145;28;20029;-71
2022/09/21 05:34:53;;;;;;;3.60;2.40;;;9.90;99.90;;;;;;4993639;28;20060;-69
2022/09/21 05:37:21;;;;;;;;;;;9.90;99.90;;;;;;4993475;28;20356;-70
2022/09/21 05:39:47;;;;;;;4.10;2.17;;;10.00;99.90;;;;;;4993254;28;19906;-70
2022/09/21 05:42:13;;;;;;;4.68;2.42;;;10.00;99.90;;;;;;4992663;28;20068;-70
2022/09/21 05:44:40;;;;;;;2.15;1.95;;;10.00;99.90;;;;;;4975675;28;20050;-71
2022/09/21 05:47:24;;;;;;;3.42;2.30;;;10.00;99.90;;;;;;4992650;28;20100;-71
2022/09/21 05:50:02;;;;;;;5.60;2.50;;;10.00;99.90;;;;;;4993410;28;20117;-70
2022/09/21 05:52:58;;;;;;;3.90;2.10;;;10.00;99.90;;;;;;4992996;28;20383;-70
2022/09/21 05:55:57;;;;;;;5.30;2.17;;;10.10;99.90;;;;;;4993254;28;20379;-70
2022/09/21 05:58:46;;;;;;;4.65;2.65;;;10.10;99.90;;;;;;4993056;28;20081;-70
2022/09/21 06:01:50;;;;;;;5.55;2.53;;;10.10;99.90;;;;;;4993033;28;20093;-71
2022/09/21 06:04:16;;;;;;;4.85;2.63;;;10.10;99.90;;;;;;4992760;28;20065;-70
2022/09/21 06:06:41;;;;;;;3.80;2.50;;;10.10;99.90;;;;;;4992806;28;20027;-70
2022/09/21 06:09:07;;;;;;;3.47;2.20;;;10.20;99.90;;;;;;4975744;28;20034;-71
2022/09/21 06:11:32;;;;;;;3.30;2.20;;;10.20;99.90;;;;;;4992802;28;20096;-70
2022/09/21 06:14:00;;;;;;;4.25;2.22;;;10.30;99.90;;;;;;4993466;28;20531;-70
2022/09/21 06:16:26;;;;;;;3.33;2.15;;;10.40;99.90;;;;;;4993025;28;20494;-70
2022/09/21 06:18:51;;;;;;;3.33;2.10;;;10.50;99.90;;;;;;4993455;28;20034;-70
2022/09/21 06:21:17;;;;;;;5.93;2.17;;;10.60;99.90;;;;;;4992774;28;20045;-71
2022/09/21 06:23:43;;;;;;;3.53;1.92;;;10.70;99.90;;;;;;4993108;28;20026;-70
2022/09/21 06:26:08;;;;;;;3.28;1.92;;;10.80;99.90;;;;;;4975688;28;20034;-69
2022/09/21 06:28:34;;;;;;;3.30;2.17;;;10.90;99.90;;;;;;4992446;28;20035;-71
2022/09/21 06:31:00;;;;;;;3.85;2.40;;;11.00;99.90;;;;;;4992510;28;20030;-69
2022/09/21 06:33:25;;;;;;;2.55;1.80;;;11.10;99.90;;;;;;4992495;28;20475;-70
2022/09/21 06:35:56;;;;;;;4.55;2.10;;;11.20;99.90;;;;;;4990020;28;20031;-70
2022/09/21 06:38:23;;;;;;;3.13;1.83;;;11.30;99.90;;;;;;4992541;28;20450;-71
2022/09/21 06:40:49;;;;;;;3.20;1.70;;;11.30;99.70;;;;;;4992515;28;20034;-69
2022/09/21 06:43:15;;;;;;;3.28;1.75;;;11.40;98.90;;;;;;4992034;28;20054;-70
2022/09/21 06:45:41;;;;;;;1.92;1.70;;;11.40;99.20;;;;;;4992728;28;20113;-70
2022/09/21 06:48:07;;;;;;;3.72;1.80;;;11.50;98.70;;;;;;4992407;28;20085;-69
2022/09/21 06:50:33;;;;;;;2.67;1.73;;;11.60;98.70;;;;;;4992651;28;20072;-70
2022/09/21 06:52:59;;;;;;;2.50;2.00;;;11.70;98.50;;;;;;4993077;28;20066;-69
2022/09/21 06:55:25;;;;;;;4.07;2.05;;;11.70;98.50;;;;;;4992266;28;20022;-70
2022/09/21 06:57:51;;;;;;;1.80;1.70;;;11.80;97.80;;;;;;4995340;28;20499;-70
2022/09/21 07:00:17;;;;;;;2.90;1.95;;;11.80;97.00;;;;;;4995894;28;20078;-69
2022/09/21 07:02:44;;;;;;;4.18;1.98;;;11.80;97.10;;;;;;4995291;28;20463;-70
2022/09/21 07:05:09;;;;;;;5.05;1.60;;;11.80;96.80;;;;;;4996173;28;20041;-70
2022/09/21 07:07:35;;;;;;;5.90;2.10;;;11.70;96.90;;;;;;4995948;28;20026;-70
2022/09/21 07:10:01;;;;;;;3.22;1.40;;;11.70;97.50;;;;;;4996222;28;20030;-69
2022/09/21 07:12:33;;;;;;;2.65;1.83;;;11.80;97.30;;;;;;4995584;28;20058;-69
2022/09/21 07:14:59;;;;;;;3.00;1.73;;;11.80;96.90;;;;;;4996329;28;20038;-69
2022/09/21 07:17:26;;;;;;;2.95;1.95;;;11.70;97.10;;;;;;4995195;28;20085;-69
2022/09/21 07:19:51;;;;;;;2.47;1.80;;;11.70;97.00;;;;;;4995954;28;20105;-68
2022/09/21 07:22:17;;;;;;;2.60;1.70;;;11.80;97.40;;;;;;4995449;28;20114;-69
2022/09/21 07:24:43;;;;;;;2.63;1.70;;;12.10;97.10;;;;;;4995761;28;20068;-69
2022/09/21 07:27:09;;;;;;;2.15;1.70;;;12.50;95.60;;;;;;4995675;28;20044;-70
2022/09/21 07:29:34;;;;;;;4.47;1.50;;;13.00;94.10;;;;;;4995018;28;20519;-70
2022/09/21 07:32:00;;;;;;;1.88;1.55;;;14.00;93.10;;;;;;4995479;28;20146;-69
2022/09/21 07:34:26;;;;;;;3.97;1.55;;;15.40;90.20;;;;;;4995180;28;20114;-69
2022/09/21 07:36:52;;;;;;;2.72;1.50;;;16.50;81.10;;;;;;4995771;28;20064;-69
2022/09/21 07:39:18;;;;;;;1.58;1.40;;;17.30;76.30;;;;;;4994980;28;20026;-71
2022/09/21 07:41:44;;;;;;;2.63;1.73;;;17.20;73.10;;;;;;4978055;28;20030;-69
2022/09/21 07:44:09;;;;;;;2.85;1.83;;;17.10;72.70;;;;;;4995217;28;20042;-68
2022/09/21 07:46:36;;;;;;;1.85;1.73;;;17.20;72.10;;;;;;4995043;28;20149;-69
2022/09/21 07:49:03;;;;;;;2.67;1.75;;;18.30;70.30;;;;;;4995481;28;20066;-70
2022/09/21 07:51:28;;;;;;;2.97;1.55;;;18.70;66.40;;;;;;4994662;28;20551;-70
2022/09/21 07:53:55;;;;;;;1.95;1.45;;;18.50;63.00;;;;;;4995714;28;20150;-69
2022/09/21 07:56:22;;;;;;;2.33;1.48;;;18.30;63.20;;;;;;4995023;28;20053;-69
2022/09/21 07:59:05;;;;;;;2.95;1.90;;;18.10;64.10;;;;;;4995397;28;20112;-70
2022/09/21 08:01:37;;;;;;;3.25;2.10;;;18.50;63.80;;;;;;4994944;28;20379;-69
2022/09/21 08:04:06;;;;;;;2.95;1.80;;;18.20;63.60;;;;;;4995309;28;20034;-69
2022/09/21 08:06:34;;;;;;;3.03;1.90;;;18.40;64.60;;;;;;4994759;28;20033;-70
2022/09/21 08:09:00;;;;;;;2.00;1.58;;;17.70;63.60;;;;;;4994118;28;20460;-70
2022/09/21 08:11:29;;;;;;;3.67;1.90;;;17.20;67.00;;;;;;4994478;28;20031;-70
2022/09/21 08:14:00;;;;;;;5.43;2.63;;;17.00;66.90;;;;;;4994898;28;20026;-70
2022/09/21 08:16:27;;;;;;;5.03;2.45;;;17.50;68.10;;;;;;4994911;28;20026;-69
2022/09/21 08:18:53;;;;;;;3.38;2.25;;;18.50;65.20;;;;;;4995007;28;20046;-70
2022/09/21 08:21:20;;;;;;;4.18;1.98;;;19.40;64.40;;;;;;4994455;28;20041;-70
2022/09/21 08:23:46;;;;;;;4.00;1.73;;;19.70;59.90;;;;;;4994821;28;20042;-69
2022/09/21 08:26:17;;;;;;;6.93;2.05;;;19.10;59.70;;;;;;4994891;28;20049;-69
2022/09/21 08:28:46;;;;;;;3.38;1.92;;;18.20;62.30;;;;;;4994689;28;20499;-69
2022/09/21 08:31:11;;;;;;;3.42;2.10;;;18.00;63.50;;;;;;4994678;28;20113;-69
2022/09/21 08:33:37;;;;;;;3.17;2.13;;;17.70;65.40;;;;;;4994395;28;20578;-68
2022/09/21 08:36:03;;;;;;;2.63;1.80;;;17.30;65.60;;;;;;4976970;28;20030;-69
2022/09/21 08:38:33;;;;;;;1.98;1.70;;;16.80;66.50;;;;;;4984207;28;20022;-70
2022/09/21 08:41:01;;;;;;;2.13;1.92;;;16.60;68.20;;;;;;4974878;28;20031;-69
2022/09/21 08:43:37;;;;;;;3.60;1.70;;;16.40;69.40;;;;;;4969851;28;20451;-69
2022/09/21 08:46:14;;;;;;;8.98;2.20;;;16.30;69.40;;;;;;4994352;28;20546;-69
2022/09/21 08:48:48;;;;;;;2.20;1.70;;;16.20;70.00;;;;;;4993843;28;20394;-69
2022/09/21 08:51:21;;;;;;;2.58;2.22;;;15.90;71.10;;;;;;4994617;28;20026;-70
2022/09/21 08:53:50;;;;;;;4.45;2.00;;;16.10;70.50;;;;;;4993161;28;20065;-71
2022/09/21 08:56:16;;;;;;;3.28;2.20;;;16.10;70.70;;;;;;4958205;28;20053;-70
2022/09/21 08:58:42;;;;;;;2.88;1.80;;;16.00;71.30;;;;;;4954959;29;20536;-69
2022/09/21 09:01:26;;;;;;;2.58;1.80;;;15.90;70.60;;;;;;4955332;29;20118;-70
2022/09/21 09:03:57;;;;;;;3.67;1.85;;;15.70;72.10;;;;;;4955169;29;20066;-69
2022/09/21 09:06:46;;;;;;;6.95;1.95;;;15.60;71.80;;;;;;4955044;29;20123;-69
2022/09/21 09:09:24;;;;;;;2.92;1.67;;;15.60;71.80;;;;;;4955169;29;20380;-69
2022/09/21 09:12:12;;;;;;;3.53;1.92;;;15.50;71.90;;;;;;4955492;29;20368;-69
2022/09/21 09:14:53;;;;;;;1.83;1.60;;;15.50;73.50;;;;;;4955013;29;20031;-69
2022/09/21 09:17:28;;;;;;;2.53;1.98;;;15.40;72.90;;;;;;4955441;29;20027;-69
2022/09/21 09:20:14;;;;;;;2.90;1.50;;;15.40;73.40;;;;;;4955238;28;20066;-69
2022/09/21 09:22:45;;;;;;;2.65;1.50;;;15.30;73.80;;;;;;4954623;29;20602;-68
2022/09/21 09:25:17;;;;;;;2.10;1.60;;;15.20;72.20;;;;;;4955280;29;20035;-69
2022/09/21 09:27:46;;;;;;;1.63;1.38;;;15.30;73.30;;;;;;4954807;29;20035;-70
2022/09/21 09:30:11;;;;;;;2.83;1.88;;;15.30;73.90;;;;;;4954724;28;20031;-68
2022/09/21 09:32:48;;;;;;;2.85;1.95;;;15.20;74.50;;;;;;4954461;29;20027;-69
2022/09/21 09:35:47;;;;;;;2.53;1.83;;;15.10;74.70;;;;;;4954789;29;20031;-69
2022/09/21 09:38:44;;;;;;;2.35;1.60;;;15.00;75.80;;;;;;4954972;29;20063;-68
2022/09/21 09:41:21;;;;;;;1.60;1.50;;;15.00;76.90;;;;;;4954923;28;20365;-69
2022/09/21 09:44:14;;;;;;;3.08;1.25;;;15.10;77.60;;;;;;4985681;28;20484;-69
2022/09/21 09:47:07;;;;;;;1.75;1.45;;;15.10;75.90;;;;;;4992707;28;20344;-69
2022/09/21 09:49:52;;;;;;;1.52;1.40;;;15.10;74.50;;;;;;4993100;28;20045;-69
2022/09/21 09:52:18;;;;;;;2.55;1.30;;;15.20;75.30;;;;;;4993400;28;20034;-69
2022/09/21 09:54:43;;;;;;;1.80;1.30;;;15.30;75.50;;;;;;4993054;28;20042;-68
2022/09/21 09:57:10;;;;;;;2.65;1.70;;;15.30;74.70;;;;;;4993085;28;20364;-69
2022/09/21 09:59:38;;;;;;;2.47;1.35;;;15.20;74.70;;;;;;4992584;28;20022;-70
2022/09/21 10:02:19;;;;;;;3.05;1.42;;;15.20;74.60;;;;;;4993136;28;20054;-70
2022/09/21 10:04:53;;;;;;;2.28;1.75;;;15.10;75.20;;;;;;4992499;28;20075;-69
2022/09/21 10:07:19;;;;;;;2.35;1.35;;;15.20;76.60;;;;;;4993030;28;20153;-69
2022/09/21 10:09:45;;;;;;;3.78;1.50;;;15.20;76.10;;;;;;4975379;28;20113;-68
2022/09/21 10:12:26;;;;;;;2.28;1.15;;;15.20;76.20;;;;;;4993103;28;20037;-68
2022/09/21 10:14:55;;;;;;;1.88;1.52;;;15.20;76.30;;;;;;4993070;28;20023;-69
2022/09/21 10:17:24;;;;;;;5.45;1.45;;;15.20;76.60;;;;;;4993106;28;20018;-68
2022/09/21 10:19:59;;;;;;;2.97;1.63;;;15.30;76.20;;;;;;4992657;28;20034;-69
2022/09/21 10:22:27;;;;;;;2.33;1.50;;;15.30;74.70;;;;;;4992587;28;20054;-70
2022/09/21 10:24:53;;;;;;;1.73;1.20;;;15.40;74.30;;;;;;4992759;28;20058;-69
2022/09/21 10:27:32;;;;;;;1.13;1.00;;;15.50;73.10;;;;;;4993049;28;20022;-69
2022/09/21 10:29:58;;;;;;;1.10;0.90;;;15.40;72.60;;;;;;4993168;28;20038;-69
2022/09/21 10:32:26;;;;;;;1.52;1.10;;;15.40;71.60;;;;;;4995100;28;20026;-70
2022/09/21 10:35:04;;;;;;;1.77;1.10;;;15.40;71.50;;;;;;4995118;28;20022;-73
2022/09/21 10:37:40;;;;;;;2.28;1.27;;;15.40;72.80;;;;;;4996307;28;20026;-70
2022/09/21 10:40:20;;;;;;;1.83;1.00;;;15.30;73.70;;;;;;4997147;28;20056;-69
2022/09/21 10:42:52;;;;;;;0.98;0.80;;;15.20;74.30;;;;;;4995972;28;20077;-70
2022/09/21 10:45:29;;;;;;;1.30;0.95;;;15.10;74.50;;;;;;4996540;28;20045;-70
2022/09/21 10:48:05;;;;;;;4.20;1.02;;;15.10;75.50;;;;;;4996741;28;20026;-69
2022/09/21 10:50:40;;;;;;;2.28;0.93;;;15.10;74.70;;;;;;4995949;28;20034;-70
2022/09/21 10:53:08;;;;;;;1.55;0.88;;;15.00;73.60;;;;;;4996680;28;20077;-68
2022/09/21 10:55:46;;;;;;;1.10;0.77;;;15.10;73.80;;;;;;4993644;28;20031;-69
2022/09/21 10:58:13;;;;;;;1.17;0.90;;;15.00;73.50;;;;;;4976950;28;20026;-69
2022/09/21 11:00:50;;;;;;;2.25;0.80;;;15.00;74.30;;;;;;4977286;28;20023;-70
2022/09/21 11:03:30;;;;;;;0.85;0.80;;;15.20;74.20;;;;;;4960363;28;20023;-68
2022/09/21 11:06:18;;;;;;;0.57;0.57;;;15.30;74.00;;;;;;4976096;28;20049;-69
2022/09/21 11:09:04;;;;;;;0.35;0.35;;;15.50;70.10;;;;;;4946644;29;20054;-70
2022/09/21 11:11:52;;;;;;;0.60;0.60;;;15.70;65.20;;;;;;4957250;29;20027;-70
2022/09/21 11:14:23;;;;;;;0.50;0.50;;;15.70;65.50;;;;;;4957486;29;20027;-69
2022/09/21 11:17:07;;;;;;;2.30;0.60;;;15.90;66.20;;;;;;4957131;29;20035;-70
2022/09/21 11:20:04;;;;;;;0.95;0.80;;;16.10;66.10;;;;;;4956943;29;20031;-70
2022/09/21 11:22:39;;;;;;;0.85;0.75;;;16.20;67.80;;;;;;4957116;29;20086;-70
2022/09/21 11:25:41;;;;;;;2.40;0.70;;;16.30;69.40;;;;;;4957454;29;20396;-69
2022/09/21 11:28:33;;;;;;;0.75;0.57;;;16.50;69.00;;;;;;4957149;29;20043;-68
2022/09/21 11:31:23;;;;;;;1.40;0.93;;;16.70;68.20;;;;;;4954220;29;20043;-69
2022/09/21 11:34:10;;;;;;;1.30;0.80;;;16.80;67.20;;;;;;4956720;29;20392;-69
2022/09/21 11:37:00;;;;;;;2.35;1.10;;;16.80;65.90;;;;;;4956776;29;20038;-69
2022/09/21 11:40:02;;;;;;;3.05;0.90;;;16.90;66.40;;;;;;4957039;29;20039;-70
2022/09/21 11:42:54;;;;;;;1.42;0.77;;;16.90;66.10;;;;;;4956931;28;20131;-69
2022/09/21 11:45:31;;;;;;;1.05;0.77;;;17.10;66.50;;;;;;4956754;29;20027;-70
2022/09/21 11:48:27;;;;;;;1.98;1.10;;;17.00;66.90;;;;;;4956970;29;20082;-68
2022/09/21 11:51:24;;;;;;;1.15;0.90;;;17.00;69.30;;;;;;4956320;29;20462;-70
2022/09/21 11:53:56;;;;;;;1.77;0.73;;;17.10;67.00;;;;;;4956340;29;20119;-69
2022/09/21 11:56:30;;;;;;;1.05;0.70;;;17.00;62.70;;;;;;4956531;29;20087;-69
2022/09/21 11:59:07;;;;;;;1.77;1.20;;;17.00;63.20;;;;;;4956344;29;20085;-69
2022/09/21 12:01:42;;;;;;;1.75;1.35;;;17.00;66.50;;;;;;4956135;29;20050;-70
2022/09/21 12:04:35;;;;;;;1.80;1.13;;;16.90;69.40;;;;;;4956534;29;20098;-69
2022/09/21 12:07:19;;;;;;;2.05;1.30;;;16.70;70.10;;;;;;4956133;29;20027;-68
2022/09/21 12:10:05;;;;;;;1.75;1.30;;;16.70;71.70;;;;;;4956187;29;20039;-69
2022/09/21 12:12:59;;;;;;;1.92;1.40;;;16.60;70.80;;;;;;4956511;29;20043;-68
2022/09/21 12:15:34;;;;;;;2.60;1.70;;;16.50;72.00;;;;;;4956216;29;20064;-68
2022/09/21 12:18:22;;;;;;;5.10;1.40;;;16.50;71.30;;;;;;4956436;29;20110;-69
2022/09/21 12:21:02;;;;;;;2.20;1.10;;;16.40;70.20;;;;;;4955802;29;20038;-69
2022/09/21 12:23:55;;;;;;;2.83;1.40;;;16.40;71.60;;;;;;4956295;29;20031;-69
2022/09/21 12:26:49;;;;;;;1.40;1.02;;;16.40;71.20;;;;;;4956112;29;20034;-68
2022/09/21 12:29:24;;;;;;;2.17;1.30;;;16.30;72.20;;;;;;4953991;29;20499;-68
2022/09/21 12:32:14;;;;;;;3.53;1.25;;;16.20;72.10;;;;;;4956067;29;20035;-69
2022/09/21 12:34:43;;;;;;;1.77;1.20;;;16.10;72.80;;;;;;4956298;29;20027;-69
2022/09/21 12:37:33;;;;;;;1.83;1.00;;;16.10;73.70;;;;;;4955831;29;20027;-68
2022/09/21 12:40:41;;;;;;;1.20;1.00;;;16.10;72.00;;;;;;4955633;29;20046;-70
2022/09/21 12:43:25;;;;;;;2.28;1.00;;;16.10;72.20;;;;;;4955607;29;20480;-70
2022/09/21 12:46:00;;;;;;;1.73;1.10;;;16.00;71.10;;;;;;4955399;29;20468;-70
2022/09/21 12:48:31;;;;;;;1.33;1.10;;;16.10;71.20;;;;;;4955280;29;20031;-70
2022/09/21 12:51:00;;;;;;;;;;;16.10;72.70;;;;;;4955557;29;20032;-70
2022/09/21 12:53:29;;;;;;;1.38;0.90;;;16.10;73.70;;;;;;4955507;29;20002;-69
2022/09/21 12:56:02;;;;;;;1.00;1.00;;;16.10;73.90;;;;;;4954836;28;20027;-69
2022/09/21 12:58:57;;;;;;;5.07;1.35;;;16.10;70.70;;;;;;4957617;28;20038;-69
2022/09/21 13:01:35;;;;;;;1.55;1.10;;;16.10;72.30;;;;;;4955258;29;20058;-69
2022/09/21 13:04:37;;;;;;;1.30;1.20;;;16.20;73.90;;;;;;4955757;29;20035;-68
2022/09/21 13:07:08;;;;;;;2.95;1.25;;;16.30;74.00;;;;;;4955241;29;20023;-69
2022/09/21 13:09:40;;;;;;;1.10;1.00;;;16.20;70.40;;;;;;4953740;29;20091;-70
2022/09/21 13:12:13;;;;;;;1.83;0.95;;;16.20;69.30;;;;;;4961728;28;20575;-68
2022/09/21 13:14:45;;;;;;;2.08;1.30;;;16.20;69.30;;;;;;4974185;28;20045;-71
2022/09/21 13:17:22;;;;;;;1.30;1.10;;;16.10;69.70;;;;;;4974817;28;20034;-69